createdAt,value
2019-03-23T00:02:08.348Z,48.63
2019-03-23T00:07:14.061Z,46.70
2019-03-23T00:12:19.649Z,52.40
2019-03-23T00:17:25.461Z,47.97
2019-03-23T00:22:31.003Z,42.97
2019-03-23T00:27:37.092Z,45.97
2019-03-23T00:32:42.669Z,44.07
2019-03-23T00:37:48.947Z,46.27
2019-03-23T00:42:54.939Z,43.57
2019-03-23T00:48:00.572Z,48.40
2019-03-23T00:53:06.265Z,46.23
2019-03-23T00:58:11.859Z,48.80
2019-03-23T01:03:17.473Z,50.07
2019-03-23T01:08:23.385Z,55.03
2019-03-23T01:13:29.181Z,54.17
2019-03-23T01:18:34.830Z,43.70
2019-03-23T01:23:40.672Z,42.13
2019-03-23T01:28:46.237Z,43.67
2019-03-23T01:33:51.816Z,41.87
2019-03-23T01:38:57.502Z,51.27
2019-03-23T01:44:03.248Z,46.50
2019-03-23T01:49:08.803Z,41.00
2019-03-23T01:54:14.580Z,44.53
2019-03-23T01:59:21.236Z,49.33
2019-03-23T02:04:26.835Z,46.43
2019-03-23T02:09:34.533Z,48.83
2019-03-23T02:14:40.443Z,41.53
2019-03-23T02:19:45.990Z,42.87
2019-03-23T02:24:51.779Z,43.77
2019-03-23T02:29:57.420Z,39.87
2019-03-23T02:35:03.304Z,37.87
2019-03-23T02:40:09.176Z,43.27
2019-03-23T02:45:15.340Z,42.23
2019-03-23T02:50:21.391Z,39.00
2019-03-23T02:55:27.190Z,46.10
2019-03-23T03:00:32.755Z,44.67
2019-03-23T03:05:38.375Z,42.57
2019-03-23T03:10:44.494Z,43.40
2019-03-23T03:15:50.122Z,38.70
2019-03-23T03:20:55.747Z,39.90
2019-03-23T03:26:01.348Z,41.30
2019-03-23T03:31:06.992Z,42.90
2019-03-23T03:36:12.735Z,41.27
2019-03-23T03:41:18.365Z,42.13
2019-03-23T03:46:24.322Z,36.80
2019-03-23T03:51:29.862Z,42.50
2019-03-23T03:56:35.433Z,49.77
2019-03-23T04:01:40.971Z,48.90
2019-03-23T04:06:46.668Z,46.13
2019-03-23T04:11:52.277Z,42.90
2019-03-23T04:16:57.827Z,37.53
2019-03-23T04:22:03.574Z,37.53
2019-03-23T04:27:09.252Z,33.93
2019-03-23T04:32:14.853Z,32.67
2019-03-23T04:37:21.771Z,35.50
2019-03-23T04:42:27.800Z,36.00
2019-03-23T04:47:34.814Z,37.47
2019-03-23T04:52:40.586Z,40.97
2019-03-23T04:57:46.665Z,39.57
2019-03-23T05:02:53.809Z,37.67
2019-03-23T05:08:01.577Z,37.40
2019-03-23T05:13:07.473Z,39.23
2019-03-23T05:18:17.299Z,35.90
2019-03-23T05:23:22.983Z,37.27
2019-03-23T05:28:28.752Z,35.37
2019-03-23T05:33:34.556Z,40.17
2019-03-23T05:38:44.662Z,40.23
2019-03-23T05:43:47.497Z,43.93
2019-03-23T05:48:53.251Z,37.87
2019-03-23T05:53:58.815Z,41.30
2019-03-23T05:59:04.649Z,37.27
2019-03-23T06:04:10.236Z,35.10
2019-03-23T06:09:16.073Z,39.83
2019-03-23T06:14:22.207Z,36.73
2019-03-23T06:19:27.747Z,42.43
2019-03-23T06:24:33.539Z,42.40
2019-03-23T06:29:39.421Z,36.80
2019-03-23T06:34:45.009Z,36.00
2019-03-23T06:39:52.023Z,42.40
2019-03-23T06:44:57.721Z,45.93
2019-03-23T06:50:05.145Z,46.10
2019-03-23T06:55:11.512Z,43.03
2019-03-23T07:00:17.416Z,41.23
2019-03-23T07:05:23.210Z,37.63
2019-03-23T07:10:28.773Z,44.00
2019-03-23T07:15:34.831Z,49.30
2019-03-23T07:20:40.482Z,44.30
2019-03-23T07:25:46.366Z,45.23
2019-03-23T07:30:52.060Z,44.00
2019-03-23T07:35:57.659Z,37.70
2019-03-23T07:41:03.279Z,43.10
2019-03-23T07:46:10.356Z,34.83
2019-03-23T07:51:15.887Z,40.07
2019-03-23T07:56:21.705Z,38.03
2019-03-23T08:01:27.501Z,33.97
2019-03-23T08:06:33.190Z,34.57
2019-03-23T08:11:38.906Z,33.73
2019-03-23T08:16:47.570Z,30.50
2019-03-23T08:21:53.460Z,30.63
2019-03-23T08:26:59.080Z,34.53
2019-03-23T08:32:05.027Z,36.17
2019-03-23T08:37:11.083Z,36.53
2019-03-23T08:42:16.640Z,32.33
2019-03-23T08:47:22.297Z,35.43
2019-03-23T08:52:32.957Z,26.63
2019-03-23T08:57:38.545Z,25.83
2019-03-23T09:02:44.511Z,26.57
2019-03-23T09:07:52.490Z,25.57
2019-03-23T09:12:58.720Z,26.70
2019-03-23T09:18:04.299Z,27.63
2019-03-23T09:23:10.296Z,29.37
2019-03-23T09:28:15.970Z,24.47
2019-03-23T09:33:21.627Z,24.97
2019-03-23T09:38:27.283Z,24.73
2019-03-23T09:43:33.149Z,29.40
2019-03-23T09:48:38.919Z,29.23
2019-03-23T09:53:44.767Z,27.35
2019-03-23T09:58:50.411Z,27.17
2019-03-23T10:03:56.072Z,27.62
2019-03-23T10:09:03.749Z,31.87
2019-03-23T10:14:11.348Z,28.10
2019-03-23T10:19:17.151Z,26.40
2019-03-23T10:24:22.949Z,29.45
2019-03-23T10:29:29.352Z,30.00
2019-03-23T10:34:34.915Z,28.67
2019-03-23T10:39:41.360Z,30.43
2019-03-23T10:44:47.557Z,29.48
2019-03-23T10:49:53.133Z,30.88
2019-03-23T10:54:59.075Z,30.88
2019-03-23T11:00:05.020Z,28.50
2019-03-23T11:05:12.589Z,31.17
2019-03-23T11:10:18.399Z,31.30
2019-03-23T11:15:23.954Z,30.12
2019-03-23T13:17:30.167Z,45.70
2019-03-23T13:22:35.803Z,49.73
2019-03-23T13:27:42.679Z,51.18
2019-03-23T13:32:48.525Z,53.25
2019-03-23T13:37:54.734Z,52.15
2019-03-23T13:43:00.311Z,52.80
2019-03-23T13:48:06.089Z,57.00
2019-03-23T13:53:11.937Z,62.50
2019-03-23T13:58:17.725Z,62.27
2019-03-23T14:03:26.306Z,69.43
2019-03-23T14:08:32.342Z,65.03
2019-03-23T14:13:39.764Z,66.85
2019-03-23T14:18:45.570Z,63.45
2019-03-23T14:23:51.562Z,66.47
2019-03-23T14:28:57.414Z,61.50
2019-03-23T14:34:03.349Z,56.45
2019-03-23T14:39:09.048Z,57.70
2019-03-23T14:44:15.022Z,57.73
2019-03-23T14:49:20.546Z,57.88
2019-03-23T14:54:26.404Z,56.02
2019-03-23T14:59:32.019Z,54.10
2019-03-23T15:04:37.778Z,51.90
2019-03-23T15:09:43.566Z,55.53
2019-03-23T15:14:49.343Z,59.33
2019-03-23T15:19:55.254Z,57.53
2019-03-23T15:25:00.969Z,59.33
2019-03-23T15:30:07.370Z,63.23
2019-03-23T15:35:16.209Z,64.13
2019-03-23T15:40:22.103Z,64.50
2019-03-23T15:45:27.806Z,64.10
2019-03-23T15:50:33.599Z,67.30
2019-03-23T15:55:39.253Z,62.37
2019-03-23T16:00:45.107Z,60.67
2019-03-23T16:05:51.494Z,60.20
2019-03-23T16:10:57.643Z,58.17
2019-03-23T16:16:09.426Z,59.57
2019-03-23T16:21:15.377Z,61.23
2019-03-23T16:26:21.210Z,55.17
2019-03-23T16:31:26.710Z,59.77
2019-03-23T16:36:32.312Z,57.80
2019-03-23T16:41:38.745Z,60.83
2019-03-23T16:46:44.622Z,55.00
2019-03-23T16:51:50.685Z,53.13
2019-03-23T16:56:56.359Z,51.70
2019-03-23T17:02:02.433Z,54.07
2019-03-23T17:07:09.440Z,52.50
2019-03-23T17:12:15.366Z,51.80
2019-03-23T17:17:21.234Z,50.43
2019-03-23T17:22:27.098Z,50.57
2019-03-23T17:27:32.707Z,51.80
2019-03-23T17:32:38.708Z,54.87
2019-03-23T17:37:44.310Z,50.43
2019-03-23T17:42:50.038Z,51.40
2019-03-23T17:47:59.170Z,52.77
2019-03-23T17:53:04.777Z,49.27
2019-03-23T17:58:10.451Z,53.30
2019-03-23T18:03:16.607Z,51.93
2019-03-23T18:08:22.507Z,52.63
2019-03-23T18:13:33.233Z,52.93
2019-03-23T18:18:38.791Z,54.93
2019-03-23T18:23:44.970Z,53.00
2019-03-23T18:28:50.609Z,50.50
2019-03-23T18:33:56.239Z,53.97
2019-03-23T18:39:01.915Z,57.03
2019-03-23T18:44:16.201Z,54.20
2019-03-23T18:49:16.339Z,50.80
2019-03-23T18:54:21.935Z,51.00
2019-03-23T18:59:27.526Z,52.97
2019-03-23T19:04:33.185Z,54.70
2019-03-23T19:09:38.825Z,51.30
2019-03-23T19:14:44.403Z,54.00
2019-03-23T19:19:50.109Z,56.40
2019-03-23T19:24:56.786Z,56.87
2019-03-23T19:30:02.669Z,51.77
2019-03-23T19:35:08.716Z,54.50
2019-03-23T19:40:15.217Z,63.60
2019-03-23T19:45:20.915Z,60.10
2019-03-23T19:50:26.703Z,54.43
2019-03-23T19:55:32.419Z,66.73
2019-03-23T20:00:38.775Z,60.33
2019-03-23T20:05:44.750Z,57.23
2019-03-23T20:10:50.937Z,60.13
2019-03-23T20:15:56.671Z,61.20
2019-03-23T20:21:02.389Z,59.57
2019-03-23T20:26:08.075Z,60.53
2019-03-23T20:31:14.382Z,60.50
2019-03-23T20:36:20.481Z,58.50
2019-03-23T20:41:27.860Z,58.23
2019-03-23T20:46:33.783Z,58.17
2019-03-23T20:51:39.589Z,60.27
2019-03-23T20:56:45.496Z,59.73
2019-03-23T21:01:51.146Z,65.37
2019-03-23T21:06:56.883Z,67.00
2019-03-23T21:12:04.956Z,67.03
2019-03-23T21:17:10.492Z,66.87
2019-03-23T21:22:16.981Z,68.47
2019-03-23T21:27:23.443Z,68.17
2019-03-23T21:32:28.377Z,71.90
2019-03-23T21:37:34.137Z,71.93
2019-03-23T21:42:42.832Z,67.73
2019-03-23T21:47:48.392Z,71.40
2019-03-23T21:52:54.390Z,73.53
2019-03-23T21:58:00.119Z,68.93
2019-03-23T22:03:05.724Z,76.80
2019-03-23T22:08:11.251Z,73.97
2019-03-23T22:13:17.016Z,73.00
2019-03-23T22:18:22.728Z,80.03
2019-03-23T22:23:28.904Z,73.47
2019-03-23T22:28:34.578Z,70.50
2019-03-23T22:33:40.123Z,80.10
2019-03-23T22:38:45.734Z,76.50
2019-03-23T22:43:53.934Z,73.67
2019-03-23T22:48:59.917Z,76.43
2019-03-23T22:54:05.749Z,70.57
2019-03-23T22:59:11.385Z,78.70
2019-03-23T23:04:17.372Z,75.33
2019-03-23T23:09:22.918Z,74.80
2019-03-23T23:14:28.542Z,75.63
2019-03-23T23:19:34.156Z,73.60
2019-03-23T23:24:41.098Z,79.80
2019-03-23T23:29:46.810Z,80.80
2019-03-23T23:34:52.536Z,77.80
2019-03-23T23:39:58.276Z,73.00
2019-03-23T23:45:14.861Z,75.93
2019-03-23T23:50:13.322Z,81.67
2019-03-23T23:55:18.964Z,73.07
